CPX714 Details

Departure: José María Córdova International Airport (SKRG) at 1430 UTC
Arrival: Miami International Airport (KMIA) at 1800 UTC
Route: BUTAL UQ105 KILER UG430 UCA UA301 URSUS FLIPR5
Notes:


Current Weather Information
SKRG 231300Z 24003KT 6000 SCT008 BKN080 15/14 A3030 NOSIG RMK HZ
KMIA 231353Z 12008KT 10SM FEW010 FEW022 SCT250 30/23 A3001 RMK AO2 SLP162 T03000233